You are not logged in, Click here to log in
ICAO: LOWW Country: 奧地利和首都維也納東南方18公里
Latitude: 48.1158 Longitude: 16.5666
Total Arrivals: 17 Total Departures: 15
Latest Arrival: FS97 (HECA-LOWW)ALAN. LIU Latest Departure: FS85 (LOWW-LJLJ)ALAN. LIU
Scenery:
METAR : LOWW 180650Z 09005KT 060V120 CAVOK 21/16 Q1014 BECMG FM0800 15007KT

維也納國際機場VIE